createdAt,value
2022-12-03T00:02:13.376Z,77.40
2022-12-03T00:04:40.478Z,77.40
2022-12-03T00:07:07.228Z,77.80
2022-12-03T00:09:33.916Z,78.00
2022-12-03T00:12:00.612Z,78.30
2022-12-03T00:14:27.581Z,78.80
2022-12-03T00:16:54.401Z,79.20
2022-12-03T00:19:21.148Z,79.40
2022-12-03T00:21:47.911Z,79.50
2022-12-03T00:24:14.594Z,79.50
2022-12-03T00:26:41.487Z,79.80
2022-12-03T00:29:08.352Z,79.80
2022-12-03T00:31:35.216Z,80.10
2022-12-03T00:34:02.070Z,80.50
2022-12-03T00:36:28.798Z,81.20
2022-12-03T00:38:55.557Z,81.00
2022-12-03T00:41:22.263Z,80.20
2022-12-03T00:43:48.945Z,80.50
2022-12-03T00:46:20.948Z,80.90
2022-12-03T00:48:48.181Z,80.80
2022-12-03T00:51:14.996Z,82.10
2022-12-03T00:53:41.665Z,81.90
2022-12-03T00:56:08.933Z,81.20
2022-12-03T00:58:35.928Z,81.40
2022-12-03T01:01:02.649Z,81.80
2022-12-03T01:03:29.358Z,82.10
2022-12-03T01:05:56.213Z,82.30
2022-12-03T01:08:22.876Z,82.50
2022-12-03T01:10:49.620Z,82.40
2022-12-03T01:13:16.396Z,82.50
2022-12-03T01:15:43.325Z,82.80
2022-12-03T01:18:10.131Z,82.50
2022-12-03T01:20:38.484Z,82.50
2022-12-03T01:23:05.574Z,82.90
2022-12-03T01:25:32.375Z,82.10
2022-12-03T01:27:59.148Z,82.20
2022-12-03T01:30:25.909Z,82.30
2022-12-03T01:32:52.778Z,82.30
2022-12-03T01:35:19.643Z,82.70
2022-12-03T01:37:46.339Z,82.30
2022-12-03T01:40:19.787Z,82.10
2022-12-03T01:42:46.570Z,82.50
2022-12-03T01:45:22.455Z,82.90
2022-12-03T01:47:49.357Z,83.10
2022-12-03T01:50:23.000Z,83.40
2022-12-03T01:52:50.000Z,83.40
2022-12-03T01:55:20.360Z,83.80
2022-12-03T01:57:53.741Z,83.90
2022-12-03T02:00:23.400Z,84.10
2022-12-03T02:02:53.555Z,84.20
2022-12-03T02:05:26.479Z,84.50
2022-12-03T02:07:54.099Z,84.90
2022-12-03T02:10:28.124Z,85.10
2022-12-03T02:13:01.135Z,85.40
2022-12-03T02:15:27.929Z,85.50
2022-12-03T02:17:55.573Z,86.00
2022-12-03T02:20:22.619Z,85.40
2022-12-03T02:23:10.880Z,85.90
2022-12-03T02:25:38.586Z,86.00
2022-12-03T02:28:07.904Z,86.40
2022-12-03T02:30:49.717Z,86.80
2022-12-03T02:33:16.478Z,86.90
2022-12-03T02:35:43.265Z,87.40
2022-12-03T02:38:12.837Z,87.40
2022-12-03T02:40:39.937Z,87.10
2022-12-03T02:43:06.725Z,87.20
2022-12-03T02:45:43.301Z,87.90
2022-12-03T02:48:19.551Z,87.20
2022-12-03T02:50:53.594Z,88.10
2022-12-03T02:53:27.674Z,87.60
2022-12-03T02:55:57.197Z,88.00
2022-12-03T02:58:25.785Z,87.90
2022-12-03T03:00:54.231Z,87.80
2022-12-03T03:03:22.180Z,87.70
2022-12-03T03:05:49.799Z,87.70
2022-12-03T03:08:18.028Z,88.00
2022-12-03T03:10:46.569Z,88.50
2022-12-03T03:13:17.404Z,88.60
2022-12-03T03:15:44.615Z,89.10
2022-12-03T03:18:13.052Z,88.90
2022-12-03T03:20:41.072Z,89.10
2022-12-03T03:23:19.492Z,89.30
2022-12-03T03:25:56.901Z,89.30
2022-12-03T03:28:24.538Z,89.40
2022-12-03T03:30:51.618Z,89.50
2022-12-03T03:33:18.452Z,89.70
2022-12-03T03:35:48.177Z,89.70
2022-12-03T03:38:19.277Z,89.90
2022-12-03T03:40:48.565Z,90.00
2022-12-03T03:43:15.584Z,89.60
2022-12-03T03:45:43.668Z,89.60
2022-12-03T03:48:11.380Z,89.30
2022-12-03T03:50:38.316Z,90.00
2022-12-03T03:53:05.600Z,89.40
2022-12-03T03:55:32.419Z,89.60
2022-12-03T03:57:59.244Z,89.50
2022-12-03T04:00:26.242Z,89.60
2022-12-03T04:02:54.324Z,90.00
2022-12-03T04:05:23.232Z,90.00
2022-12-03T04:07:50.356Z,90.00
2022-12-03T04:10:35.925Z,89.70
2022-12-03T04:13:03.060Z,89.50
2022-12-03T04:15:30.211Z,89.40
2022-12-03T04:18:16.032Z,89.80
2022-12-03T04:20:43.083Z,89.50
2022-12-03T04:23:09.979Z,89.70
2022-12-03T04:25:55.269Z,89.40
2022-12-03T04:28:40.851Z,90.00
2022-12-03T04:31:26.209Z,89.60
2022-12-03T04:34:11.805Z,90.10
2022-12-03T04:36:38.909Z,89.50
2022-12-03T04:39:07.676Z,88.10
2022-12-03T04:41:34.337Z,88.70
2022-12-03T04:44:24.014Z,88.20
2022-12-03T04:46:50.785Z,87.80
2022-12-03T04:49:17.462Z,88.00
2022-12-03T04:51:44.198Z,87.60
2022-12-03T04:54:10.944Z,87.50
2022-12-03T04:56:37.608Z,87.60
2022-12-03T04:59:04.325Z,88.00
2022-12-03T05:01:31.085Z,88.40
2022-12-03T05:03:57.841Z,88.00
2022-12-03T05:06:24.507Z,88.20
2022-12-03T05:08:51.239Z,88.30
2022-12-03T05:11:17.895Z,88.20
2022-12-03T05:13:44.618Z,88.20
2022-12-03T05:16:11.304Z,88.40
2022-12-03T05:18:38.108Z,88.60
2022-12-03T05:21:05.154Z,88.50
2022-12-03T05:23:31.839Z,88.60
2022-12-03T05:25:58.597Z,88.20
2022-12-03T05:28:25.447Z,87.00
2022-12-03T05:30:52.424Z,86.70
2022-12-03T05:33:20.392Z,86.40
2022-12-03T05:35:47.604Z,86.60
2022-12-03T05:38:14.531Z,86.70
2022-12-03T05:40:41.239Z,87.00
2022-12-03T05:43:08.021Z,87.90
2022-12-03T05:45:36.227Z,87.40
2022-12-03T05:48:04.572Z,87.80
2022-12-03T05:50:33.354Z,87.60
2022-12-03T05:53:00.361Z,87.50
2022-12-03T05:55:28.007Z,87.20
2022-12-03T05:57:55.326Z,86.90
2022-12-03T06:00:28.420Z,86.20
2022-12-03T06:02:55.569Z,84.80
2022-12-03T06:05:23.235Z,85.10
2022-12-03T06:07:51.518Z,85.50
2022-12-03T06:10:21.848Z,85.30
2022-12-03T06:12:48.628Z,84.30
2022-12-03T06:15:15.804Z,83.00
2022-12-03T06:17:42.821Z,83.20
2022-12-03T06:20:14.844Z,83.20
2022-12-03T06:22:41.961Z,83.50
2022-12-03T06:25:09.343Z,83.50
2022-12-03T06:27:36.425Z,83.10
2022-12-03T06:30:04.104Z,82.90
2022-12-03T06:32:30.893Z,83.30
2022-12-03T06:34:57.589Z,83.30
2022-12-03T06:37:24.324Z,83.70
2022-12-03T06:39:51.057Z,84.00
2022-12-03T06:42:18.028Z,84.40
2022-12-03T06:44:44.760Z,84.80
2022-12-03T06:47:11.501Z,85.40
2022-12-03T06:49:38.289Z,85.40
2022-12-03T06:52:05.164Z,85.50
2022-12-03T06:54:31.893Z,85.60
2022-12-03T06:56:58.696Z,86.20
2022-12-03T06:59:25.472Z,86.40
2022-12-03T07:01:52.256Z,86.60
2022-12-03T07:04:19.114Z,86.80
2022-12-03T07:06:45.791Z,87.20
2022-12-03T07:09:12.548Z,87.60
2022-12-03T07:11:41.990Z,88.80
2022-12-03T07:14:11.297Z,88.50
2022-12-03T07:16:39.031Z,88.50
2022-12-03T07:19:06.898Z,88.30
2022-12-03T07:21:33.871Z,88.10
2022-12-03T07:24:00.741Z,87.90
2022-12-03T07:26:27.578Z,87.70
2022-12-03T07:28:54.359Z,86.80
2022-12-03T07:31:21.080Z,86.60
2022-12-03T07:33:47.884Z,86.80
2022-12-03T07:36:14.614Z,85.60
2022-12-03T07:38:41.348Z,85.00
2022-12-03T07:41:08.108Z,84.30
2022-12-03T07:43:34.876Z,83.80
2022-12-03T07:46:01.696Z,84.30
2022-12-03T07:48:28.428Z,83.50
2022-12-03T07:50:55.183Z,82.90
2022-12-03T07:53:22.212Z,83.40
2022-12-03T07:55:48.940Z,83.60
2022-12-03T07:58:15.656Z,83.30
2022-12-03T08:00:42.474Z,82.80
2022-12-03T08:03:09.200Z,82.80
2022-12-03T08:05:35.976Z,82.60
2022-12-03T08:08:02.834Z,82.80
2022-12-03T08:10:29.559Z,83.00
2022-12-03T08:12:59.541Z,83.00
2022-12-03T08:15:33.639Z,82.80
2022-12-03T08:18:12.329Z,83.10
2022-12-03T08:20:41.070Z,82.50
2022-12-03T08:23:13.743Z,82.90
2022-12-03T08:25:40.517Z,83.10
2022-12-03T08:28:21.796Z,83.10
2022-12-03T08:31:11.986Z,83.30
2022-12-03T08:33:40.064Z,83.50
2022-12-03T08:36:14.620Z,83.00
2022-12-03T08:38:42.919Z,83.00
2022-12-03T08:41:15.505Z,82.70
2022-12-03T08:43:43.873Z,82.10
2022-12-03T08:46:19.450Z,82.10
2022-12-03T08:48:48.942Z,81.40
2022-12-03T08:51:25.276Z,81.50
2022-12-03T08:54:01.774Z,82.50
2022-12-03T08:56:33.624Z,82.20
2022-12-03T08:59:18.859Z,82.00
2022-12-03T09:01:47.201Z,81.60
2022-12-03T09:04:30.926Z,81.90
2022-12-03T09:06:59.692Z,81.70
2022-12-03T09:09:26.916Z,82.30
2022-12-03T09:11:54.698Z,82.60
2022-12-03T09:14:22.789Z,82.60
2022-12-03T09:16:52.294Z,82.80
2022-12-03T09:19:19.125Z,82.60
2022-12-03T09:21:45.813Z,82.30
2022-12-03T09:24:12.818Z,82.30
2022-12-03T09:26:39.592Z,81.80
2022-12-03T09:29:11.719Z,81.90
2022-12-03T09:31:39.332Z,82.40
2022-12-03T09:34:07.211Z,82.70
2022-12-03T09:36:34.180Z,82.80
2022-12-03T09:39:00.914Z,82.20
2022-12-03T09:41:28.612Z,82.70
2022-12-03T09:44:05.304Z,83.10
2022-12-03T09:46:35.101Z,82.90
2022-12-03T09:49:03.095Z,83.00
2022-12-03T09:51:33.782Z,83.60
2022-12-03T09:54:02.957Z,83.70
2022-12-03T09:56:29.921Z,83.60
2022-12-03T09:58:56.705Z,83.10
2022-12-03T10:01:26.753Z,83.10
2022-12-03T10:03:56.084Z,83.80
2022-12-03T10:06:24.194Z,82.90
2022-12-03T10:08:54.577Z,83.20
2022-12-03T10:11:24.411Z,83.40
2022-12-03T10:13:51.804Z,83.10
2022-12-03T10:16:20.861Z,83.20
2022-12-03T10:18:54.354Z,83.00
2022-12-03T10:21:24.331Z,82.80
2022-12-03T10:24:16.924Z,83.30
2022-12-03T10:26:45.048Z,83.20
2022-12-03T10:29:34.269Z,83.60
2022-12-03T10:32:08.804Z,84.00
2022-12-03T10:34:41.515Z,83.90
2022-12-03T10:37:16.139Z,83.50
2022-12-03T10:40:08.186Z,83.30
2022-12-03T10:42:38.662Z,83.50
2022-12-03T10:45:16.186Z,83.40
2022-12-03T10:47:44.518Z,83.40
2022-12-03T10:50:19.568Z,83.50
2022-12-03T10:52:46.858Z,82.60
2022-12-03T10:55:14.893Z,82.40
2022-12-03T10:57:45.632Z,82.40
2022-12-03T11:00:20.555Z,82.80
2022-12-03T11:02:54.925Z,83.00
2022-12-03T11:05:26.932Z,82.60
2022-12-03T11:07:54.130Z,82.20
2022-12-03T11:10:21.423Z,80.80
2022-12-03T11:13:25.865Z,80.70
2022-12-03T11:15:53.319Z,80.60
2022-12-03T11:18:38.563Z,78.80
2022-12-03T11:21:07.088Z,77.70
2022-12-03T11:23:48.579Z,77.40
2022-12-03T11:26:18.906Z,76.60
2022-12-03T11:28:46.076Z,76.80
2022-12-03T11:31:39.322Z,76.80
2022-12-03T11:34:18.348Z,77.10
2022-12-03T11:37:10.122Z,76.40
2022-12-03T11:39:52.218Z,76.70
2022-12-03T11:42:28.406Z,77.30
2022-12-03T11:45:04.188Z,77.10
2022-12-03T11:47:38.199Z,77.00
2022-12-03T11:50:39.041Z,78.00
2022-12-03T11:53:17.181Z,77.80
2022-12-03T11:55:48.657Z,77.80
2022-12-03T11:58:20.051Z,77.40
2022-12-03T12:00:55.816Z,78.40
2022-12-03T12:03:33.083Z,78.50
2022-12-03T12:06:18.248Z,78.80
2022-12-03T12:08:51.201Z,78.50
2022-12-03T12:11:26.068Z,79.60
2022-12-03T12:14:00.412Z,79.70
2022-12-03T12:16:36.272Z,80.20
2022-12-03T12:19:32.400Z,80.30
2022-12-03T12:22:38.352Z,80.80
2022-12-03T12:25:29.896Z,81.00
2022-12-03T12:27:57.563Z,81.30
2022-12-03T12:30:24.339Z,81.30
2022-12-03T12:33:08.192Z,81.80
2022-12-03T12:35:36.723Z,82.00
2022-12-03T12:38:06.619Z,81.70
2022-12-03T12:40:36.777Z,81.70
2022-12-03T12:43:24.274Z,81.10
2022-12-03T12:45:54.845Z,80.70
2022-12-03T12:48:31.359Z,80.80
2022-12-03T12:51:11.495Z,80.80
2022-12-03T12:53:39.983Z,81.00
2022-12-03T12:56:21.625Z,81.40
2022-12-03T12:58:48.370Z,79.40
2022-12-03T13:01:30.292Z,78.40
2022-12-03T13:03:57.454Z,78.30
2022-12-03T13:06:28.190Z,78.50
2022-12-03T13:08:55.446Z,78.40
2022-12-03T13:11:25.200Z,77.50
2022-12-03T13:13:52.508Z,77.50
2022-12-03T13:16:21.387Z,77.30
2022-12-03T13:18:56.968Z,77.40
2022-12-03T13:21:44.603Z,77.50
2022-12-03T13:24:29.710Z,77.70
2022-12-03T13:26:56.973Z,77.50
2022-12-03T13:29:25.864Z,77.00
2022-12-03T13:31:58.470Z,76.90
2022-12-03T13:34:28.249Z,76.80
2022-12-03T13:36:58.595Z,76.90
2022-12-03T13:39:35.190Z,77.00
2022-12-03T13:42:41.537Z,77.00
2022-12-03T13:45:14.723Z,77.00
2022-12-03T13:47:58.809Z,77.20
2022-12-03T13:50:39.545Z,77.70
2022-12-03T13:53:26.798Z,77.50
2022-12-03T13:56:15.298Z,76.80
2022-12-03T13:58:42.012Z,76.80
2022-12-03T14:01:08.772Z,76.50
2022-12-03T14:03:35.815Z,76.80
2022-12-03T14:06:02.525Z,77.00
2022-12-03T14:08:29.201Z,77.20
2022-12-03T14:11:00.576Z,76.90
2022-12-03T14:13:27.881Z,75.60
2022-12-03T14:15:54.616Z,76.80
2022-12-03T14:18:21.512Z,76.40
2022-12-03T14:20:48.328Z,76.70
2022-12-03T14:23:15.586Z,77.10
2022-12-03T14:25:43.979Z,76.70
2022-12-03T14:28:11.051Z,77.00
2022-12-03T14:30:38.040Z,78.30
2022-12-03T14:33:04.784Z,77.70
2022-12-03T14:35:31.518Z,77.00
2022-12-03T14:37:58.183Z,77.10
2022-12-03T14:40:25.033Z,76.90
2022-12-03T14:42:52.025Z,77.20
2022-12-03T14:45:20.292Z,77.60
2022-12-03T14:47:46.956Z,77.70
2022-12-03T14:50:14.481Z,77.90
2022-12-03T14:52:41.854Z,78.20
2022-12-03T14:55:09.021Z,78.90
2022-12-03T14:57:35.793Z,79.00
2022-12-03T15:00:02.537Z,78.80
2022-12-03T15:02:30.281Z,79.00
2022-12-03T15:04:57.184Z,79.50
2022-12-03T15:07:23.869Z,80.00
2022-12-03T15:09:50.524Z,79.70
2022-12-03T15:12:17.403Z,80.10
2022-12-03T15:14:44.176Z,80.20
2022-12-03T15:17:10.908Z,81.40
2022-12-03T15:19:37.834Z,81.40
2022-12-03T15:22:04.582Z,81.50
2022-12-03T15:24:31.399Z,81.90
2022-12-03T15:26:58.175Z,82.40
2022-12-03T15:29:24.978Z,82.90
2022-12-03T15:31:51.793Z,83.00
2022-12-03T15:34:22.389Z,83.40
2022-12-03T15:36:49.752Z,83.50
2022-12-03T15:39:16.432Z,83.80
2022-12-03T15:41:43.153Z,84.00
2022-12-03T15:44:09.923Z,84.60
2022-12-03T15:46:36.707Z,84.10
2022-12-03T15:49:03.487Z,84.10
2022-12-03T15:51:30.305Z,84.60
2022-12-03T15:53:57.113Z,85.00
2022-12-03T15:56:24.086Z,85.40
2022-12-03T15:58:51.734Z,85.60
2022-12-03T16:01:18.661Z,85.70
2022-12-03T16:03:45.457Z,85.90
2022-12-03T16:06:12.776Z,86.00
2022-12-03T16:08:39.614Z,86.10
2022-12-03T16:11:06.426Z,85.90
2022-12-03T16:13:33.373Z,85.70
2022-12-03T16:16:00.230Z,85.70
2022-12-03T16:18:27.147Z,85.40
2022-12-03T16:20:53.859Z,85.40
2022-12-03T16:23:20.740Z,84.70
2022-12-03T16:25:47.530Z,83.80
2022-12-03T16:28:14.231Z,83.50
2022-12-03T16:30:41.314Z,84.00
2022-12-03T16:33:08.408Z,83.00
2022-12-03T16:35:35.163Z,83.40
2022-12-03T16:38:01.940Z,84.40
2022-12-03T16:40:28.897Z,83.70
2022-12-03T16:42:55.696Z,83.70
2022-12-03T16:45:33.287Z,84.00
2022-12-03T16:48:01.170Z,83.10
2022-12-03T16:50:30.297Z,83.30
2022-12-03T16:52:58.009Z,83.60
2022-12-03T16:55:25.067Z,83.80
2022-12-03T16:57:51.766Z,83.00
2022-12-03T17:00:21.623Z,82.70
2022-12-03T17:02:48.679Z,82.70
2022-12-03T17:05:15.489Z,82.60
2022-12-03T17:07:42.279Z,82.50
2022-12-03T17:10:09.492Z,83.20
2022-12-03T17:13:01.216Z,82.50
2022-12-03T17:15:22.916Z,82.40
2022-12-03T17:17:49.660Z,82.10
2022-12-03T17:20:17.959Z,82.20
2022-12-03T17:22:44.709Z,82.40
2022-12-03T17:25:12.047Z,82.60
2022-12-03T17:27:44.832Z,82.60
2022-12-03T17:30:13.022Z,82.70
2022-12-03T17:32:40.049Z,83.00
2022-12-03T17:35:07.571Z,83.00
2022-12-03T17:37:34.487Z,83.40
2022-12-03T17:40:01.491Z,83.00
2022-12-03T17:42:28.232Z,83.40
2022-12-03T17:44:54.913Z,83.70
2022-12-03T17:47:21.655Z,83.90
2022-12-03T17:49:48.396Z,83.60
2022-12-03T17:52:15.087Z,83.70
2022-12-03T17:55:08.321Z,84.00
2022-12-03T17:57:28.464Z,84.20
2022-12-03T17:59:55.417Z,84.60
2022-12-03T18:02:22.498Z,84.60
2022-12-03T18:04:49.276Z,84.70
2022-12-03T18:07:16.043Z,84.70
2022-12-03T18:09:42.740Z,84.80
2022-12-03T18:12:09.542Z,85.20
2022-12-03T18:14:36.286Z,85.20
2022-12-03T18:17:03.027Z,85.40
2022-12-03T18:19:29.733Z,85.50
2022-12-03T18:21:56.467Z,85.50
2022-12-03T18:24:23.394Z,86.20
2022-12-03T18:26:50.414Z,85.70
2022-12-03T18:29:17.173Z,86.10
2022-12-03T18:31:43.938Z,86.30
2022-12-03T18:34:10.654Z,86.50
2022-12-03T18:36:37.527Z,86.80
2022-12-03T18:39:06.106Z,86.30
2022-12-03T18:41:33.539Z,86.70
2022-12-03T18:44:04.348Z,86.50
2022-12-03T18:46:52.580Z,86.40
2022-12-03T18:49:17.831Z,86.00
2022-12-03T18:51:44.629Z,86.00
2022-12-03T18:54:13.432Z,86.10
2022-12-03T18:56:41.412Z,86.60
2022-12-03T18:59:08.801Z,86.80
2022-12-03T19:01:36.083Z,87.50
2022-12-03T19:04:03.030Z,87.50
2022-12-03T19:06:30.486Z,86.90
2022-12-03T19:08:57.621Z,87.10
2022-12-03T19:11:24.430Z,87.00
2022-12-03T19:13:51.844Z,87.20
2022-12-03T19:16:19.009Z,87.50
2022-12-03T19:18:45.996Z,87.50
2022-12-03T19:21:15.456Z,88.10
2022-12-03T19:23:54.442Z,87.50
2022-12-03T19:26:29.516Z,87.20
2022-12-03T19:28:56.243Z,88.10
2022-12-03T19:31:23.044Z,87.50
2022-12-03T19:33:50.731Z,87.20
2022-12-03T19:36:31.379Z,87.00
2022-12-03T19:38:59.518Z,86.90
2022-12-03T19:41:30.476Z,87.10
2022-12-03T19:43:58.096Z,87.10
2022-12-03T19:46:28.644Z,87.20
2022-12-03T19:48:55.693Z,87.00
2022-12-03T19:51:37.493Z,86.50
2022-12-03T19:54:06.779Z,86.60
2022-12-03T19:56:34.443Z,86.60
2022-12-03T19:59:01.752Z,86.70
2022-12-03T20:01:31.119Z,87.20
2022-12-03T20:03:59.874Z,87.50
2022-12-03T20:06:32.545Z,87.30
2022-12-03T20:09:05.415Z,86.70
2022-12-03T20:11:33.825Z,87.10
2022-12-03T20:14:03.372Z,87.40
2022-12-03T20:16:30.324Z,87.30
2022-12-03T20:19:00.001Z,87.30
2022-12-03T20:21:28.592Z,87.40
2022-12-03T20:23:55.385Z,86.70
2022-12-03T20:26:22.842Z,87.30
2022-12-03T20:28:50.114Z,86.70
2022-12-03T20:31:20.015Z,87.00
2022-12-03T20:33:49.683Z,87.20
2022-12-03T20:36:18.277Z,87.30
2022-12-03T20:38:45.435Z,86.80
2022-12-03T20:41:18.565Z,86.80
2022-12-03T20:43:45.796Z,86.90
2022-12-03T20:46:14.292Z,86.90
2022-12-03T20:48:43.447Z,86.80
2022-12-03T20:51:13.464Z,86.60
2022-12-03T20:53:40.920Z,86.60
2022-12-03T20:56:08.259Z,86.80
2022-12-03T20:58:35.351Z,87.00
2022-12-03T21:01:15.899Z,86.70
2022-12-03T21:03:43.692Z,86.60
2022-12-03T21:06:11.404Z,86.20
2022-12-03T21:08:42.758Z,85.80
2022-12-03T21:11:14.753Z,86.30
2022-12-03T21:13:43.374Z,85.50
2022-12-03T21:16:13.002Z,84.60
2022-12-03T21:18:40.335Z,83.60
2022-12-03T21:21:07.408Z,83.70
2022-12-03T21:23:35.286Z,84.20
2022-12-03T21:26:10.940Z,84.70
2022-12-03T21:28:39.733Z,84.70
2022-12-03T21:31:09.573Z,84.30
2022-12-03T21:33:36.869Z,84.10
2022-12-03T21:36:04.824Z,84.10
2022-12-03T21:38:32.728Z,84.30
2022-12-03T21:41:01.130Z,84.10
2022-12-03T21:43:28.332Z,83.80
2022-12-03T21:45:55.378Z,84.20
2022-12-03T21:48:22.568Z,84.80
2022-12-03T21:51:21.698Z,84.40
2022-12-03T21:53:48.485Z,84.10
2022-12-03T21:56:18.412Z,83.90
2022-12-03T21:58:45.643Z,83.90
2022-12-03T22:01:19.345Z,83.80
2022-12-03T22:03:46.317Z,83.90
2022-12-03T22:06:13.433Z,83.80
2022-12-03T22:08:40.645Z,83.60
2022-12-03T22:11:10.608Z,83.60
2022-12-03T22:13:38.976Z,83.90
2022-12-03T22:16:11.319Z,83.70
2022-12-03T22:18:38.605Z,83.40
2022-12-03T22:21:07.252Z,83.80
2022-12-03T22:23:34.565Z,83.60
2022-12-03T22:26:04.927Z,83.60
2022-12-03T22:28:32.266Z,83.70
2022-12-03T22:30:59.043Z,83.90
2022-12-03T22:33:25.980Z,83.90
2022-12-03T22:36:02.396Z,84.00
2022-12-03T22:38:30.009Z,84.30
2022-12-03T22:40:57.171Z,84.50
2022-12-03T22:43:24.080Z,84.40
2022-12-03T22:45:55.220Z,84.10
2022-12-03T22:48:23.349Z,84.00
2022-12-03T22:50:51.399Z,84.10
2022-12-03T22:53:18.740Z,84.10
2022-12-03T22:55:53.588Z,84.20
2022-12-03T22:58:20.282Z,84.40
2022-12-03T23:00:47.013Z,84.20
2022-12-03T23:03:13.796Z,83.70
2022-12-03T23:05:40.660Z,83.70
2022-12-03T23:08:12.399Z,83.60
2022-12-03T23:10:41.713Z,83.90
2022-12-03T23:13:09.660Z,84.10
2022-12-03T23:15:36.678Z,84.10
2022-12-03T23:18:03.757Z,84.30
2022-12-03T23:20:30.423Z,84.40
2022-12-03T23:22:57.076Z,84.70
2022-12-03T23:25:23.804Z,84.50
2022-12-03T23:27:50.541Z,84.20
2022-12-03T23:30:17.431Z,84.20
2022-12-03T23:32:44.417Z,84.40
2022-12-03T23:35:12.584Z,84.90
2022-12-03T23:37:42.512Z,84.90
2022-12-03T23:40:09.800Z,85.10
2022-12-03T23:42:36.466Z,85.20
2022-12-03T23:45:03.593Z,85.00
2022-12-03T23:47:30.365Z,84.80
2022-12-03T23:49:57.348Z,85.10
2022-12-03T23:52:24.573Z,85.00
2022-12-03T23:54:51.321Z,85.00
2022-12-03T23:57:18.435Z,85.10
2022-12-03T23:59:45.192Z,85.90
